»·PEaware :: N15JG KSBP-KOXR

N15JG :: KSBP-KOXR

FLIGHT INFORMATION

Flight Status: Arrived
Operator: Privately registered:
United States
More flights under this callsign
Pilot: Anonymous 11047 (11047)
Aircraft: CESSNA 172 SKYHAWK
(C172)
More flights by this aircraft type
Origin: KSBP San Luis Co Regl
United States
Destination: KOXR Oxnard
United States
More flights between these airports :: More routes between these airports
Route: +
File this flight plan on PilotEdge
Remarks:
Altitude:
(Current/Filed)
5,500ft
Speed:
(Current/Filed)
0kts
Departed: 06-Oct-18 01:21 PM
Arrived: 06-Oct-18 02:18 PM
Distance/Time
Traveled:
94nm/0:56
Distance/Time
To Go:
Arrived

Flight Plot

Page will automatically refresh every two minutes.


Map Options




Map Legend


Flown Route
Filed Route
Departure Airport
Arrival Airport
Navaid (VOR, NDB)
Fix

Horizontal Profiles

Position Reports

Time Latitude Longitude Heading Altitude Ground
Speed
06-Oct-18 13:22 35.233265 -120.632096 223 184ft 0kts
06-Oct-18 13:23 35.234633 -120.636073 304 185ft 62kts
06-Oct-18 13:24 35.243772 -120.657489 254 833ft 76kts
06-Oct-18 13:25 35.226256 -120.646901 130 1450ft 92kts
06-Oct-18 13:26 35.207642 -120.626513 122 2068ft 91kts
06-Oct-18 13:27 35.191748 -120.601989 131 2637ft 93kts
06-Oct-18 13:28 35.175351 -120.577173 130 3170ft 95kts
06-Oct-18 13:29 35.156122 -120.554414 120 3673ft 98kts
06-Oct-18 13:30 35.137921 -120.529226 130 4134ft 101kts
06-Oct-18 13:31 35.119836 -120.503218 124 4616ft 102kts
06-Oct-18 13:32 35.105462 -120.472940 129 5073ft 105kts
06-Oct-18 13:33 35.084508 -120.447472 134 5509ft 109kts
06-Oct-18 13:34 35.062378 -120.417922 130 5562ft 122kts
06-Oct-18 13:35 35.042971 -120.391836 131 5601ft 128kts
06-Oct-18 13:36 35.017835 -120.360072 137 5563ft 131kts
06-Oct-18 13:37 34.997571 -120.333360 128 5474ft 134kts
06-Oct-18 13:38 34.969851 -120.292659 121 5370ft 134kts
06-Oct-18 13:39 34.951903 -120.263547 134 5468ft 124kts
06-Oct-18 13:40 34.925386 -120.226589 132 5523ft 125kts
06-Oct-18 13:41 34.907081 -120.200230 130 5554ft 125kts
06-Oct-18 13:42 34.882554 -120.162849 130 5606ft 123kts
06-Oct-18 13:43 34.866350 -120.134337 127 5646ft 127kts
06-Oct-18 13:44 34.845313 -120.100426 134 5738ft 124kts
06-Oct-18 13:45 34.820423 -120.070490 148 5706ft 125kts
06-Oct-18 13:46 34.793667 -120.043332 142 5644ft 127kts
06-Oct-18 13:47 34.768839 -120.013715 140 5682ft 121kts
06-Oct-18 13:48 34.747864 -119.985409 130 5952ft 109kts
06-Oct-18 13:49 34.727993 -119.955605 140 6011ft 113kts
06-Oct-18 13:50 34.706261 -119.925691 136 6001ft 121kts
06-Oct-18 13:51 34.686330 -119.891742 132 5963ft 122kts
06-Oct-18 13:52 34.660858 -119.855890 140 5926ft 118kts
06-Oct-18 13:53 34.642932 -119.830748 136 5907ft 118kts
06-Oct-18 13:54 34.621480 -119.800848 140 5843ft 115kts
06-Oct-18 13:55 34.598742 -119.773642 138 5700ft 119kts
06-Oct-18 13:56 34.576977 -119.744111 140 5553ft 115kts
06-Oct-18 13:57 34.554150 -119.717356 158 5415ft 108kts
06-Oct-18 13:58 34.533463 -119.691192 130 5383ft 115kts
06-Oct-18 13:59 34.516968 -119.657209 129 5279ft 114kts
06-Oct-18 14:00 34.498561 -119.627329 144 5357ft 102kts
06-Oct-18 14:01 34.477390 -119.600810 142 5001ft 110kts
06-Oct-18 14:02 34.456983 -119.573811 141 4479ft 108kts
06-Oct-18 14:03 34.435154 -119.549591 136 3686ft 107kts
06-Oct-18 14:04 34.414494 -119.524324 137 2977ft 104kts
06-Oct-18 14:05 34.394230 -119.499304 139 2298ft 104kts
06-Oct-18 14:06 34.370901 -119.478822 155 1776ft 108kts
06-Oct-18 14:07 34.351370 -119.452076 122 1613ft 109kts
06-Oct-18 14:08 34.335409 -119.421001 125 1431ft 109kts
06-Oct-18 14:09 34.318356 -119.391477 127 1450ft 102kts
06-Oct-18 14:10 34.302879 -119.362235 125 1452ft 98kts
06-Oct-18 14:11 34.290666 -119.339851 128 1409ft 102kts
06-Oct-18 14:12 34.273764 -119.312712 132 1380ft 103kts
06-Oct-18 14:13 34.255428 -119.285907 131 1218ft 107kts
06-Oct-18 14:14 34.236120 -119.259869 138 1025ft 100kts
06-Oct-18 14:15 34.218003 -119.236900 133 1010ft 93kts
06-Oct-18 14:16 34.214629 -119.206329 86 1026ft 97kts
06-Oct-18 14:17 34.216847 -119.176321 126 783ft 84kts
06-Oct-18 14:18 34.201780 -119.180622 250 370ft 58kts
06-Oct-18 14:19 34.200747 -119.199224 265 54ft 45kts
06-Oct-18 14:20 34.199916 -119.203173 189 39ft 4kts
06-Oct-18 14:21 34.199234 -119.202920 0 39ft 0kts

Navigation Log

Ident Type
1. KSBP Airport
2. KOXR Airport